sensor_id;sensor_type;location;lat;lon;timestamp;pressure;altitude;pressure_sealevel;temperature;humidity
13478;BME280;12598;62.382;17.344;2023-07-13T00:00:14;100552.44;;;28.06;36.34
13478;BME280;12598;62.382;17.344;2023-07-13T00:01:19;100550.16;;;28.03;36.32
13478;BME280;12598;62.382;17.344;2023-07-13T00:02:22;100544.28;;;28.00;36.37
13478;BME280;12598;62.382;17.344;2023-07-13T00:03:24;100536.13;;;28.00;36.44
13478;BME280;12598;62.382;17.344;2023-07-13T00:04:26;100540.09;;;28.04;36.38
13478;BME280;12598;62.382;17.344;2023-07-13T00:05:28;100545.16;;;28.00;36.36
13478;BME280;12598;62.382;17.344;2023-07-13T00:06:30;100542.63;;;27.99;36.31
13478;BME280;12598;62.382;17.344;2023-07-13T00:07:35;100523.22;;;27.95;36.57
13478;BME280;12598;62.382;17.344;2023-07-13T00:08:37;100515.94;;;27.89;36.14
13478;BME280;12598;62.382;17.344;2023-07-13T00:09:40;100537.81;;;28.01;36.54
13478;BME280;12598;62.382;17.344;2023-07-13T00:10:42;100544.09;;;28.01;36.48
13478;BME280;12598;62.382;17.344;2023-07-13T00:11:45;100536.13;;;28.00;36.47
13478;BME280;12598;62.382;17.344;2023-07-13T00:12:49;100532.38;;;28.01;36.40
13478;BME280;12598;62.382;17.344;2023-07-13T00:13:51;100536.13;;;28.00;36.27
13478;BME280;12598;62.382;17.344;2023-07-13T00:14:53;100537.81;;;28.01;36.47
13478;BME280;12598;62.382;17.344;2023-07-13T00:15:58;100533.84;;;27.97;36.49
13478;BME280;12598;62.382;17.344;2023-07-13T00:17:00;100532.38;;;28.01;36.14
13478;BME280;12598;62.382;17.344;2023-07-13T00:18:02;100529.88;;;27.99;36.11
13478;BME280;12598;62.382;17.344;2023-07-13T00:19:05;100514.44;;;27.93;36.26
13478;BME280;12598;62.382;17.344;2023-07-13T00:20:08;100524.66;;;27.98;36.33
13478;BME280;12598;62.382;17.344;2023-07-13T00:21:10;100522.97;;;27.97;36.51
13478;BME280;12598;62.382;17.344;2023-07-13T00:22:12;100526.31;;;27.99;36.32
13478;BME280;12598;62.382;17.344;2023-07-13T00:23:14;100523.59;;;27.99;36.39
13478;BME280;12598;62.382;17.344;2023-07-13T00:24:17;100521.13;;;27.97;36.39
13478;BME280;12598;62.382;17.344;2023-07-13T00:25:25;100491.06;;;27.86;35.93
13478;BME280;12598;62.382;17.344;2023-07-13T00:26:30;100511.66;;;28.00;36.40
13478;BME280;12598;62.382;17.344;2023-07-13T00:27:34;100508.97;;;28.00;36.38
13478;BME280;12598;62.382;17.344;2023-07-13T00:28:36;100487.72;;;27.84;36.33
13478;BME280;12598;62.382;17.344;2023-07-13T00:29:39;100505.63;;;27.98;36.39
13478;BME280;12598;62.382;17.344;2023-07-13T00:30:41;100515.69;;;27.97;36.17
13478;BME280;12598;62.382;17.344;2023-07-13T00:31:43;100514.81;;;27.97;36.36
13478;BME280;12598;62.382;17.344;2023-07-13T00:32:45;100509.63;;;27.95;36.42
13478;BME280;12598;62.382;17.344;2023-07-13T00:33:47;100511.06;;;27.98;36.40
13478;BME280;12598;62.382;17.344;2023-07-13T00:34:49;100503.13;;;27.96;36.15
13478;BME280;12598;62.382;17.344;2023-07-13T00:35:53;100503.97;;;27.97;35.81
13478;BME280;12598;62.382;17.344;2023-07-13T00:36:56;100499.38;;;27.97;36.12
13478;BME280;12598;62.382;17.344;2023-07-13T00:37:58;100502.28;;;27.96;36.30
13478;BME280;12598;62.382;17.344;2023-07-13T00:39:00;100495.19;;;27.95;36.44
13478;BME280;12598;62.382;17.344;2023-07-13T00:40:04;100464.59;;;27.75;36.22
13478;BME280;12598;62.382;17.344;2023-07-13T00:41:07;100485.38;;;27.94;36.03
13478;BME280;12598;62.382;17.344;2023-07-13T00:42:10;100486.84;;;27.90;36.35
13478;BME280;12598;62.382;17.344;2023-07-13T00:43:19;100489.75;;;27.95;36.22
13478;BME280;12598;62.382;17.344;2023-07-13T00:44:21;100492.03;;;27.98;36.18
13478;BME280;12598;62.382;17.344;2023-07-13T00:46:29;100484.75;;;27.92;36.32
13478;BME280;12598;62.382;17.344;2023-07-13T00:47:32;100491.41;;;27.96;36.44
13478;BME280;12598;62.382;17.344;2023-07-13T00:48:35;100490.00;;;27.93;36.20
13478;BME280;12598;62.382;17.344;2023-07-13T00:49:39;100483.09;;;27.91;36.12
13478;BME280;12598;62.382;17.344;2023-07-13T00:50:42;100493.53;;;27.94;36.13
13478;BME280;12598;62.382;17.344;2023-07-13T00:51:50;100489.75;;;27.95;36.37
13478;BME280;12598;62.382;17.344;2023-07-13T00:52:54;100479.94;;;27.94;35.87
13478;BME280;12598;62.382;17.344;2023-07-13T00:54:01;100485.97;;;27.96;36.32
13478;BME280;12598;62.382;17.344;2023-07-13T00:55:05;100486.84;;;27.96;36.26
13478;BME280;12598;62.382;17.344;2023-07-13T00:56:07;100488.69;;;27.96;35.74
13478;BME280;12598;62.382;17.344;2023-07-13T00:57:15;100486.22;;;27.94;36.08
13478;BME280;12598;62.382;17.344;2023-07-13T00:58:18;100480.53;;;27.96;36.11
13478;BME280;12598;62.382;17.344;2023-07-13T00:59:21;100475.53;;;27.93;36.12
13478;BME280;12598;62.382;17.344;2023-07-13T01:00:25;100472.63;;;27.94;36.29
13478;BME280;12598;62.382;17.344;2023-07-13T01:01:27;100467.22;;;27.88;35.97
13478;BME280;12598;62.382;17.344;2023-07-13T01:02:29;100475.97;;;27.90;35.99
13478;BME280;12598;62.382;17.344;2023-07-13T01:03:31;100477.22;;;27.94;36.08
13478;BME280;12598;62.382;17.344;2023-07-13T01:04:34;100482.03;;;27.92;36.16
13478;BME280;12598;62.382;17.344;2023-07-13T01:05:36;100479.94;;;27.94;36.05
13478;BME280;12598;62.382;17.344;2023-07-13T01:06:39;100475.53;;;27.93;36.09
13478;BME280;12598;62.382;17.344;2023-07-13T01:07:43;100466.41;;;27.87;36.10
13478;BME280;12598;62.382;17.344;2023-07-13T01:08:46;100455.56;;;27.81;36.11
13478;BME280;12598;62.382;17.344;2023-07-13T01:09:48;100464.06;;;27.91;36.13
13478;BME280;12598;62.382;17.344;2023-07-13T01:10:55;100461.16;;;27.86;36.16
13478;BME280;12598;62.382;17.344;2023-07-13T01:11:57;100465.53;;;27.93;35.96
13478;BME280;12598;62.382;17.344;2023-07-13T01:13:01;100464.69;;;27.93;36.22
13478;BME280;12598;62.382;17.344;2023-07-13T01:14:04;100463.84;;;27.92;36.10
13478;BME280;12598;62.382;17.344;2023-07-13T01:15:36;100458.34;;;27.99;35.80
13478;BME280;12598;62.382;17.344;2023-07-13T01:16:40;100461.94;;;27.99;35.94
13478;BME280;12598;62.382;17.344;2023-07-13T01:17:43;100455.03;;;27.97;35.70
13478;BME280;12598;62.382;17.344;2023-07-13T01:18:45;100462.56;;;27.95;36.14
13478;BME280;12598;62.382;17.344;2023-07-13T01:19:47;100466.34;;;27.94;35.82
13478;BME280;12598;62.382;17.344;2023-07-13T01:20:59;100463.00;;;27.92;36.21
13478;BME280;12598;62.382;17.344;2023-07-13T01:22:04;100461.75;;;27.94;35.96
13478;BME280;12598;62.382;17.344;2023-07-13T01:23:11;100458.19;;;27.94;35.99
13478;BME280;12598;62.382;17.344;2023-07-13T01:24:14;100460.91;;;27.94;35.86
13478;BME280;12598;62.382;17.344;2023-07-13T01:25:18;100453.19;;;27.91;36.29
13478;BME280;12598;62.382;17.344;2023-07-13T01:26:21;100455.91;;;27.91;36.21
13478;BME280;12598;62.382;17.344;2023-07-13T01:27:25;100451.97;;;27.87;36.36
13478;BME280;12598;62.382;17.344;2023-07-13T01:28:28;100457.81;;;27.90;35.97
13478;BME280;12598;62.382;17.344;2023-07-13T01:29:31;100446.53;;;27.87;35.73
13478;BME280;12598;62.382;17.344;2023-07-13T01:30:34;100445.28;;;27.89;36.02
13478;BME280;12598;62.382;17.344;2023-07-13T01:31:36;100450.72;;;27.89;35.81
13478;BME280;12598;62.382;17.344;2023-07-13T01:32:38;100444.25;;;27.84;35.69
13478;BME280;12598;62.382;17.344;2023-07-13T01:33:43;100441.53;;;27.84;35.78
13478;BME280;12598;62.382;17.344;2023-07-13T01:34:45;100447.16;;;27.89;35.72
13478;BME280;12598;62.382;17.344;2023-07-13T01:35:49;100432.75;;;27.88;36.06
13478;BME280;12598;62.382;17.344;2023-07-13T01:36:52;100448.19;;;27.88;35.93
13478;BME280;12598;62.382;17.344;2023-07-13T01:37:55;100438.19;;;27.88;35.93
13478;BME280;12598;62.382;17.344;2023-07-13T01:38:58;100432.53;;;27.83;35.99
13478;BME280;12598;62.382;17.344;2023-07-13T01:40:00;100435.66;;;27.87;35.83
13478;BME280;12598;62.382;17.344;2023-07-13T01:41:05;100430.22;;;27.87;35.92
13478;BME280;12598;62.382;17.344;2023-07-13T01:42:07;100419.19;;;27.82;35.80
13478;BME280;12598;62.382;17.344;2023-07-13T01:43:09;100435.66;;;27.87;35.94
13478;BME280;12598;62.382;17.344;2023-07-13T01:44:11;100427.50;;;27.87;35.67
13478;BME280;12598;62.382;17.344;2023-07-13T01:45:13;100425.00;;;27.85;35.91
13478;BME280;12598;62.382;17.344;2023-07-13T01:46:15;100410.41;;;27.80;35.69
13478;BME280;12598;62.382;17.344;2023-07-13T01:47:24;100422.06;;;27.87;35.47
13478;BME280;12598;62.382;17.344;2023-07-13T01:48:28;100419.34;;;27.87;35.58
13478;BME280;12598;62.382;17.344;2023-07-13T01:49:29;100425.84;;;27.86;35.87
13478;BME280;12598;62.382;17.344;2023-07-13T01:50:32;100425.22;;;27.84;35.80
13478;BME280;12598;62.382;17.344;2023-07-13T01:51:34;100419.78;;;27.84;35.72
13478;BME280;12598;62.382;17.344;2023-07-13T01:52:36;100411.63;;;27.84;35.64
13478;BME280;12598;62.382;17.344;2023-07-13T01:53:38;100407.09;;;27.78;35.70
13478;BME280;12598;62.382;17.344;2023-07-13T01:54:39;100426.28;;;27.83;36.02
13478;BME280;12598;62.382;17.344;2023-07-13T01:55:43;100418.13;;;27.83;36.07
13478;BME280;12598;62.382;17.344;2023-07-13T01:56:45;100402.47;;;27.78;35.79
13478;BME280;12598;62.382;17.344;2023-07-13T01:57:47;100411.03;;;27.82;35.73
13478;BME280;12598;62.382;17.344;2023-07-13T01:58:49;100417.28;;;27.82;36.04
13478;BME280;12598;62.382;17.344;2023-07-13T01:59:51;100405.59;;;27.82;35.64
13478;BME280;12598;62.382;17.344;2023-07-13T02:00:53;100405.19;;;27.78;35.90
13478;BME280;12598;62.382;17.344;2023-07-13T02:01:55;100408.31;;;27.82;36.04
13478;BME280;12598;62.382;17.344;2023-07-13T02:02:57;100406.41;;;27.82;36.26
13478;BME280;12598;62.382;17.344;2023-07-13T02:03:59;100405.59;;;27.82;35.98
13478;BME280;12598;62.382;17.344;2023-07-13T02:05:03;100406.66;;;27.81;35.80
13478;BME280;12598;62.382;17.344;2023-07-13T02:06:05;100408.31;;;27.82;36.06
13478;BME280;12598;62.382;17.344;2023-07-13T02:07:08;100399.53;;;27.80;36.12
13478;BME280;12598;62.382;17.344;2023-07-13T02:08:11;100394.94;;;27.80;36.06
13478;BME280;12598;62.382;17.344;2023-07-13T02:09:13;100398.50;;;27.81;36.13
13478;BME280;12598;62.382;17.344;2023-07-13T02:10:15;100400.38;;;27.80;36.14
13478;BME280;12598;62.382;17.344;2023-07-13T02:11:17;100394.94;;;27.80;35.96
13478;BME280;12598;62.382;17.344;2023-07-13T02:12:19;100389.50;;;27.80;36.02
13478;BME280;12598;62.382;17.344;2023-07-13T02:13:21;100395.16;;;27.79;36.13
13478;BME280;12598;62.382;17.344;2023-07-13T02:14:23;100390.53;;;27.79;36.15
13478;BME280;12598;62.382;17.344;2023-07-13T02:15:25;100398.69;;;27.79;36.13
13478;BME280;12598;62.382;17.344;2023-07-13T02:16:28;100390.78;;;27.78;36.06
13478;BME280;12598;62.382;17.344;2023-07-13T02:17:31;100392.44;;;27.79;36.06
13478;BME280;12598;62.382;17.344;2023-07-13T02:18:33;100382.84;;;27.76;36.38
13478;BME280;12598;62.382;17.344;2023-07-13T02:19:35;100389.72;;;27.79;36.02
13478;BME280;12598;62.382;17.344;2023-07-13T02:20:37;100387.84;;;27.79;36.06
13478;BME280;12598;62.382;17.344;2023-07-13T02:21:40;100388.50;;;27.75;36.31
13478;BME280;12598;62.382;17.344;2023-07-13T02:22:42;100381.56;;;27.79;36.06
13478;BME280;12598;62.382;17.344;2023-07-13T02:23:44;100388.88;;;27.78;36.18
13478;BME280;12598;62.382;17.344;2023-07-13T02:24:46;100391.59;;;27.78;36.04
13478;BME280;12598;62.382;17.344;2023-07-13T02:25:48;100383.69;;;27.77;36.24
13478;BME280;12598;62.382;17.344;2023-07-13T02:26:50;100386.16;;;27.78;36.18
13478;BME280;12598;62.382;17.344;2023-07-13T02:27:52;100385.34;;;27.78;35.85
13478;BME280;12598;62.382;17.344;2023-07-13T02:28:54;100379.91;;;27.78;36.06
13478;BME280;12598;62.382;17.344;2023-07-13T02:29:56;100383.69;;;27.77;36.02
13478;BME280;12598;62.382;17.344;2023-07-13T02:31:05;100375.28;;;27.78;36.09
13478;BME280;12598;62.382;17.344;2023-07-13T02:32:07;100362.16;;;27.75;36.12
13478;BME280;12598;62.382;17.344;2023-07-13T02:33:09;100376.16;;;27.79;36.03
13478;BME280;12598;62.382;17.344;2023-07-13T02:34:11;100375.28;;;27.78;36.38
13478;BME280;12598;62.382;17.344;2023-07-13T02:35:13;100370.91;;;27.77;36.18
13478;BME280;12598;62.382;17.344;2023-07-13T02:36:15;100367.38;;;27.77;35.94
13478;BME280;12598;62.382;17.344;2023-07-13T02:37:19;100368.19;;;27.77;36.29
13478;BME280;12598;62.382;17.344;2023-07-13T02:38:21;100369.84;;;27.78;36.28
13478;BME280;12598;62.382;17.344;2023-07-13T02:39:24;100361.72;;;27.78;36.42
13478;BME280;12598;62.382;17.344;2023-07-13T02:40:26;100365.72;;;27.76;36.12
13478;BME280;12598;62.382;17.344;2023-07-13T02:41:28;100361.94;;;27.77;36.36
13478;BME280;12598;62.382;17.344;2023-07-13T02:42:30;100359.22;;;27.77;36.11
13478;BME280;12598;62.382;17.344;2023-07-13T02:43:32;100361.94;;;27.77;36.16
13478;BME280;12598;62.382;17.344;2023-07-13T02:44:34;100361.94;;;27.77;36.28
13478;BME280;12598;62.382;17.344;2023-07-13T02:45:36;100356.72;;;27.75;36.14
13478;BME280;12598;62.382;17.344;2023-07-13T02:46:38;100350.91;;;27.72;36.20
13478;BME280;12598;62.382;17.344;2023-07-13T02:47:41;100343.16;;;27.69;36.15
13478;BME280;12598;62.382;17.344;2023-07-13T02:48:45;100354.41;;;27.79;36.24
13478;BME280;12598;62.382;17.344;2023-07-13T02:49:47;100353.19;;;27.75;36.37
13478;BME280;12598;62.382;17.344;2023-07-13T02:50:49;100351.06;;;27.77;36.03
13478;BME280;12598;62.382;17.344;2023-07-13T02:51:51;100359.22;;;27.77;36.12
13478;BME280;12598;62.382;17.344;2023-07-13T02:52:53;100355.28;;;27.73;36.26
13478;BME280;12598;62.382;17.344;2023-07-13T02:53:55;100353.19;;;27.75;36.33
13478;BME280;12598;62.382;17.344;2023-07-13T02:54:57;100349.84;;;27.73;36.43
13478;BME280;12598;62.382;17.344;2023-07-13T02:55:59;100352.94;;;27.76;36.22
13478;BME280;12598;62.382;17.344;2023-07-13T02:57:01;100360.28;;;27.76;36.29
13478;BME280;12598;62.382;17.344;2023-07-13T02:58:03;100352.94;;;27.76;36.24
13478;BME280;12598;62.382;17.344;2023-07-13T02:59:05;100346.09;;;27.74;36.24
13478;BME280;12598;62.382;17.344;2023-07-13T03:00:07;100349.84;;;27.73;36.42
13478;BME280;12598;62.382;17.344;2023-07-13T03:01:12;100350.22;;;27.76;36.18
13478;BME280;12598;62.382;17.344;2023-07-13T03:02:14;100356.50;;;27.77;36.39
13478;BME280;12598;62.382;17.344;2023-07-13T03:03:17;100346.69;;;27.76;36.18
13478;BME280;12598;62.382;17.344;2023-07-13T03:04:19;100349.19;;;27.77;36.19
13478;BME280;12598;62.382;17.344;2023-07-13T03:05:22;100345.63;;;27.77;36.35
13478;BME280;12598;62.382;17.344;2023-07-13T03:06:24;100345.25;;;27.73;36.19
13478;BME280;12598;62.382;17.344;2023-07-13T03:07:28;100341.25;;;27.76;36.22
13478;BME280;12598;62.382;17.344;2023-07-13T03:08:30;100343.13;;;27.75;36.20
13478;BME280;12598;62.382;17.344;2023-07-13T03:09:33;100345.03;;;27.75;36.19
13478;BME280;12598;62.382;17.344;2023-07-13T03:10:37;100343.38;;;27.74;36.52
13478;BME280;12598;62.382;17.344;2023-07-13T03:11:44;100354.41;;;27.79;36.22
13478;BME280;12598;62.382;17.344;2023-07-13T03:12:58;100347.69;;;27.81;36.65
13478;BME280;12598;62.382;17.344;2023-07-13T03:14:01;100339.19;;;27.71;36.07
13478;BME280;12598;62.382;17.344;2023-07-13T03:15:07;100349.41;;;27.76;36.21
13478;BME280;12598;62.382;17.344;2023-07-13T03:16:12;100347.13;;;27.73;36.42
13478;BME280;12598;62.382;17.344;2023-07-13T03:17:21;100356.06;;;27.80;36.32
13478;BME280;12598;62.382;17.344;2023-07-13T03:18:23;100357.31;;;27.77;36.21
13478;BME280;12598;62.382;17.344;2023-07-13T03:19:25;100361.34;;;27.75;36.21
13478;BME280;12598;62.382;17.344;2023-07-13T03:20:28;100360.72;;;27.73;36.22
13478;BME280;12598;62.382;17.344;2023-07-13T03:21:31;100361.94;;;27.77;36.42
13478;BME280;12598;62.382;17.344;2023-07-13T03:22:33;100366.53;;;27.76;36.35
13478;BME280;12598;62.382;17.344;2023-07-13T03:23:35;100362.38;;;27.74;36.48
13478;BME280;12598;62.382;17.344;2023-07-13T03:24:37;100365.53;;;27.71;36.33
13478;BME280;12598;62.382;17.344;2023-07-13T03:25:41;100367.38;;;27.77;36.38
13478;BME280;12598;62.382;17.344;2023-07-13T03:26:43;100368.44;;;27.76;36.37
13478;BME280;12598;62.382;17.344;2023-07-13T03:27:45;100367.59;;;27.75;36.49
13478;BME280;12598;62.382;17.344;2023-07-13T03:28:47;100332.97;;;27.58;36.34
13478;BME280;12598;62.382;17.344;2023-07-13T03:29:53;100361.09;;;27.76;36.35
13478;BME280;12598;62.382;17.344;2023-07-13T03:31:06;100360.03;;;27.77;36.40
13478;BME280;12598;62.382;17.344;2023-07-13T03:32:09;100347.34;;;27.71;36.32
13478;BME280;12598;62.382;17.344;2023-07-13T03:33:12;100353.78;;;27.77;36.41
13478;BME280;12598;62.382;17.344;2023-07-13T03:34:14;100338.19;;;27.66;36.65
13478;BME280;12598;62.382;17.344;2023-07-13T03:35:16;100352.34;;;27.74;36.41
13478;BME280;12598;62.382;17.344;2023-07-13T03:36:21;100344.19;;;27.74;36.40
13478;BME280;12598;62.382;17.344;2023-07-13T03:37:26;100344.78;;;27.76;36.56
13478;BME280;12598;62.382;17.344;2023-07-13T03:38:29;100342.97;;;27.70;36.22
13478;BME280;12598;62.382;17.344;2023-07-13T03:39:31;100335.66;;;27.71;36.33
13478;BME280;12598;62.382;17.344;2023-07-13T03:40:33;100340.66;;;27.74;36.61
13478;BME280;12598;62.382;17.344;2023-07-13T03:41:35;100328.97;;;27.67;36.63
13478;BME280;12598;62.382;17.344;2023-07-13T03:42:37;100336.88;;;27.68;36.48
13478;BME280;12598;62.382;17.344;2023-07-13T03:43:40;100342.75;;;27.72;36.49
13478;BME280;12598;62.382;17.344;2023-07-13T03:44:42;100337.31;;;27.72;36.53
13478;BME280;12598;62.382;17.344;2023-07-13T03:45:47;100333.56;;;27.73;36.69
13478;BME280;12598;62.382;17.344;2023-07-13T03:46:49;100338.59;;;27.69;36.63
13478;BME280;12598;62.382;17.344;2023-07-13T03:47:52;100343.56;;;27.72;36.54
13478;BME280;12598;62.382;17.344;2023-07-13T03:48:54;100341.50;;;27.68;36.68
13478;BME280;12598;62.382;17.344;2023-07-13T03:49:56;100337.72;;;27.69;36.56
13478;BME280;12598;62.382;17.344;2023-07-13T03:50:58;100342.75;;;27.72;36.74
13478;BME280;12598;62.382;17.344;2023-07-13T03:52:00;100335.66;;;27.71;36.67
13478;BME280;12598;62.382;17.344;2023-07-13T03:53:02;100334.00;;;27.70;36.72
13478;BME280;12598;62.382;17.344;2023-07-13T03:54:05;100320.81;;;27.67;36.92
13478;BME280;12598;62.382;17.344;2023-07-13T03:55:07;100331.03;;;27.71;36.68
13478;BME280;12598;62.382;17.344;2023-07-13T03:56:09;100331.03;;;27.71;36.89
13478;BME280;12598;62.382;17.344;2023-07-13T03:57:12;100331.88;;;27.72;36.63
13478;BME280;12598;62.382;17.344;2023-07-13T03:58:35;100318.69;;;27.75;36.68
13478;BME280;12598;62.382;17.344;2023-07-13T03:59:47;100318.03;;;27.80;36.65
13478;BME280;12598;62.382;17.344;2023-07-13T04:00:49;100324.72;;;27.77;36.70
13478;BME280;12598;62.382;17.344;2023-07-13T04:01:52;100308.69;;;27.69;36.58
13478;BME280;12598;62.382;17.344;2023-07-13T04:02:54;100318.31;;;27.72;36.95
13478;BME280;12598;62.382;17.344;2023-07-13T04:03:57;100319.34;;;27.71;36.94
13478;BME280;12598;62.382;17.344;2023-07-13T04:05:04;100314.53;;;27.73;36.76
13478;BME280;12598;62.382;17.344;2023-07-13T04:06:13;100315.59;;;27.72;36.96
13478;BME280;12598;62.382;17.344;2023-07-13T04:07:18;100311.38;;;27.76;37.01
13478;BME280;12598;62.382;17.344;2023-07-13T04:08:20;100303.66;;;27.73;36.84
13478;BME280;12598;62.382;17.344;2023-07-13T04:09:22;100296.56;;;27.72;36.90
13478;BME280;12598;62.382;17.344;2023-07-13T04:10:24;100296.56;;;27.72;36.83
13478;BME280;12598;62.382;17.344;2023-07-13T04:11:29;100284.66;;;27.66;37.11
13478;BME280;12598;62.382;17.344;2023-07-13T04:12:34;100291.13;;;27.72;36.86
13478;BME280;12598;62.382;17.344;2023-07-13T04:13:36;100291.13;;;27.72;36.99
13478;BME280;12598;62.382;17.344;2023-07-13T04:14:38;100285.09;;;27.70;36.97
13478;BME280;12598;62.382;17.344;2023-07-13T04:15:40;100270.94;;;27.55;37.11
13478;BME280;12598;62.382;17.344;2023-07-13T04:16:43;100295.97;;;27.70;36.96
13478;BME280;12598;62.382;17.344;2023-07-13T04:17:45;100264.91;;;27.53;36.94
13478;BME280;12598;62.382;17.344;2023-07-13T04:18:48;100286.97;;;27.69;37.10
13478;BME280;12598;62.382;17.344;2023-07-13T04:19:50;100289.88;;;27.68;37.18
13478;BME280;12598;62.382;17.344;2023-07-13T04:20:52;100263.84;;;27.54;36.91
13478;BME280;12598;62.382;17.344;2023-07-13T04:21:54;100284.25;;;27.69;37.02
13478;BME280;12598;62.382;17.344;2023-07-13T04:22:56;100282.19;;;27.65;36.81
13478;BME280;12598;62.382;17.344;2023-07-13T04:23:59;100290.53;;;27.70;37.02
13478;BME280;12598;62.382;17.344;2023-07-13T04:25:01;100287.16;;;27.68;37.14
13478;BME280;12598;62.382;17.344;2023-07-13T04:26:03;100293.25;;;27.70;36.97
13478;BME280;12598;62.382;17.344;2023-07-13T04:27:05;100286.13;;;27.69;37.06
13478;BME280;12598;62.382;17.344;2023-07-13T04:28:07;100292.59;;;27.68;36.93
13478;BME280;12598;62.382;17.344;2023-07-13T04:29:09;100291.53;;;27.69;37.38
13478;BME280;12598;62.382;17.344;2023-07-13T04:30:11;100295.97;;;27.70;37.06
13478;BME280;12598;62.382;17.344;2023-07-13T04:31:14;100287.63;;;27.65;37.15
13478;BME280;12598;62.382;17.344;2023-07-13T04:32:16;100293.25;;;27.70;37.13
13478;BME280;12598;62.382;17.344;2023-07-13T04:33:18;100290.53;;;27.70;37.09
13478;BME280;12598;62.382;17.344;2023-07-13T04:34:24;100297.63;;;27.71;37.17
13478;BME280;12598;62.382;17.344;2023-07-13T04:35:26;100295.72;;;27.71;37.03
13478;BME280;12598;62.382;17.344;2023-07-13T04:36:28;100298.69;;;27.70;36.98
13478;BME280;12598;62.382;17.344;2023-07-13T04:37:30;100285.09;;;27.70;37.28
13478;BME280;12598;62.382;17.344;2023-07-13T04:38:33;100284.25;;;27.69;36.94
13478;BME280;12598;62.382;17.344;2023-07-13T04:39:35;100281.13;;;27.66;37.18
13478;BME280;12598;62.382;17.344;2023-07-13T04:40:37;100277.75;;;27.64;37.45
13478;BME280;12598;62.382;17.344;2023-07-13T04:41:39;100285.91;;;27.70;37.09
13478;BME280;12598;62.382;17.344;2023-07-13T04:42:41;100285.25;;;27.68;37.29
13478;BME280;12598;62.382;17.344;2023-07-13T04:43:43;100277.97;;;27.69;37.21
13478;BME280;12598;62.382;17.344;2023-07-13T04:44:49;100272.53;;;27.69;37.31
13478;BME280;12598;62.382;17.344;2023-07-13T04:45:52;100261.66;;;27.69;37.28
13478;BME280;12598;62.382;17.344;2023-07-13T04:46:54;100268.78;;;27.70;37.08
13478;BME280;12598;62.382;17.344;2023-07-13T04:47:56;100256.69;;;27.66;37.14
13478;BME280;12598;62.382;17.344;2023-07-13T04:48:58;100274.22;;;27.70;37.08
13478;BME280;12598;62.382;17.344;2023-07-13T04:50:00;100274.22;;;27.70;37.12
13478;BME280;12598;62.382;17.344;2023-07-13T04:51:03;100264.38;;;27.69;37.13
13478;BME280;12598;62.382;17.344;2023-07-13T04:52:05;100267.09;;;27.69;37.17
13478;BME280;12598;62.382;17.344;2023-07-13T04:53:09;100263.34;;;27.70;36.94
13478;BME280;12598;62.382;17.344;2023-07-13T04:54:12;100272.13;;;27.72;37.07
13478;BME280;12598;62.382;17.344;2023-07-13T04:55:13;100267.94;;;27.69;37.13
13478;BME280;12598;62.382;17.344;2023-07-13T04:56:15;100278.81;;;27.69;37.10
13478;BME280;12598;62.382;17.344;2023-07-13T04:57:17;100272.53;;;27.69;37.24
13478;BME280;12598;62.382;17.344;2023-07-13T04:58:20;100263.53;;;27.68;37.20
13478;BME280;12598;62.382;17.344;2023-07-13T04:59:23;100267.09;;;27.69;37.37
13478;BME280;12598;62.382;17.344;2023-07-13T05:00:26;100266.25;;;27.68;36.95
13478;BME280;12598;62.382;17.344;2023-07-13T05:01:28;100259.81;;;27.63;37.15
13478;BME280;12598;62.382;17.344;2023-07-13T05:02:30;100267.94;;;27.69;37.29
13478;BME280;12598;62.382;17.344;2023-07-13T05:03:34;100254.56;;;27.68;36.78
13478;BME280;12598;62.382;17.344;2023-07-13T05:04:36;100253.50;;;27.69;37.10
13478;BME280;12598;62.382;17.344;2023-07-13T05:05:38;100251.63;;;27.69;36.86
13478;BME280;12598;62.382;17.344;2023-07-13T05:06:40;100260.81;;;27.68;36.88
13478;BME280;12598;62.382;17.344;2023-07-13T05:07:42;100246.22;;;27.63;37.21
13478;BME280;12598;62.382;17.344;2023-07-13T05:08:46;100254.16;;;27.71;37.00
13478;BME280;12598;62.382;17.344;2023-07-13T05:09:48;100246.81;;;27.71;36.78
13478;BME280;12598;62.382;17.344;2023-07-13T05:10:51;100246.00;;;27.71;37.01
13478;BME280;12598;62.382;17.344;2023-07-13T05:11:53;100250.13;;;27.73;36.95
13478;BME280;12598;62.382;17.344;2023-07-13T05:12:55;100245.34;;;27.69;36.85
13478;BME280;12598;62.382;17.344;2023-07-13T05:13:57;100244.72;;;27.73;37.10
13478;BME280;12598;62.382;17.344;2023-07-13T05:14:59;100253.25;;;27.77;36.87
13478;BME280;12598;62.382;17.344;2023-07-13T05:16:03;100260.13;;;27.79;36.81
13478;BME280;12598;62.382;17.344;2023-07-13T05:17:06;100242.75;;;27.80;36.77
13478;BME280;12598;62.382;17.344;2023-07-13T05:18:08;100256.50;;;27.85;36.61
13478;BME280;12598;62.382;17.344;2023-07-13T05:19:10;100254.41;;;27.87;36.46
13478;BME280;12598;62.382;17.344;2023-07-13T05:20:12;100256.69;;;27.90;36.48
13478;BME280;12598;62.382;17.344;2023-07-13T05:21:15;100248.09;;;27.93;36.45
13478;BME280;12598;62.382;17.344;2023-07-13T05:22:17;100252.22;;;27.96;36.24
13478;BME280;12598;62.382;17.344;2023-07-13T05:23:19;100251.78;;;27.99;36.07
13478;BME280;12598;62.382;17.344;2023-07-13T05:24:21;100258.06;;;27.99;36.36
13478;BME280;12598;62.382;17.344;2023-07-13T05:25:26;100247.09;;;28.06;36.04
13478;BME280;12598;62.382;17.344;2023-07-13T05:26:28;100251.50;;;28.07;35.66